Time;durP1;ratioP1;P1;durP2;ratioP2;P2;SDS_P1;SDS_P2;PMS_P1;PMS_P2;Temp;Humidity;BMP_temperature;BMP_pressure;BME280_temperature;BME280_humidity;BME280_pressure;Samples;Min_cycle;Max_cycle;Signal;HPM_P1;HPM_P2
2022/11/29 00:01:13;;;;;;;5.13;3.60;;;11.00;99.90;;;;;;5115123;28;20491;-47
2022/11/29 00:03:38;;;;;;;6.13;3.75;;;11.00;99.90;;;;;;5114930;28;20533;-48
2022/11/29 00:06:06;;;;;;;4.80;3.53;;;12.10;99.90;;;;;;5114791;28;20032;-47
2022/11/29 00:08:32;;;;;;;5.00;3.65;;;13.80;99.90;;;;;;5114319;28;20024;-47
2022/11/29 00:11:05;;;;;;;6.25;4.13;;;14.20;99.80;;;;;;5114775;28;20099;-46
2022/11/29 00:13:31;;;;;;;5.70;3.67;;;14.00;99.50;;;;;;5114726;28;20027;-47
2022/11/29 00:16:02;;;;;;;5.28;3.80;;;13.50;99.90;;;;;;5113264;28;20444;-47
2022/11/29 00:18:28;;;;;;;5.05;3.65;;;12.90;99.90;;;;;;5114094;28;20365;-47
2022/11/29 00:20:53;;;;;;;5.00;3.83;;;12.40;99.90;;;;;;5114417;28;20035;-47
2022/11/29 00:23:19;;;;;;;5.47;3.70;;;11.90;99.90;;;;;;5114524;28;20400;-47
2022/11/29 00:25:44;;;;;;;5.28;3.63;;;11.60;99.90;;;;;;5114356;28;20028;-47
2022/11/29 00:28:10;;;;;;;5.28;3.38;;;11.30;99.90;;;;;;5114185;28;20447;-47
2022/11/29 00:30:35;;;;;;;5.43;3.63;;;11.10;99.90;;;;;;5114417;28;20023;-47
2022/11/29 00:33:01;;;;;;;5.40;3.50;;;10.90;99.90;;;;;;5114274;28;20442;-48
2022/11/29 00:35:27;;;;;;;6.15;3.50;;;11.70;99.90;;;;;;5114597;28;20027;-49
2022/11/29 00:37:53;;;;;;;5.57;3.63;;;13.40;99.90;;;;;;5113945;28;20019;-51
2022/11/29 00:40:18;;;;;;;4.55;3.40;;;14.20;99.90;;;;;;5113926;28;20036;-47
2022/11/29 00:42:44;;;;;;;6.43;3.78;;;14.00;99.50;;;;;;5114082;28;20036;-47
2022/11/29 00:45:10;;;;;;;4.88;3.50;;;13.60;99.80;;;;;;5114222;28;20027;-47
2022/11/29 00:47:36;;;;;;;4.45;3.17;;;13.10;99.90;;;;;;5113971;28;20465;-46
2022/11/29 00:50:02;;;;;;;5.53;3.83;;;12.60;99.90;;;;;;5113635;28;20077;-48
2022/11/29 00:52:28;;;;;;;6.00;3.45;;;12.10;99.90;;;;;;5114071;28;20065;-48
2022/11/29 00:54:53;;;;;;;5.93;3.50;;;11.70;99.90;;;;;;5113959;28;20015;-47
2022/11/29 00:57:19;;;;;;;5.15;3.35;;;11.40;99.90;;;;;;5113774;28;20385;-45
2022/11/29 00:59:45;;;;;;;6.15;3.60;;;11.20;99.90;;;;;;5113414;28;20107;-47
2022/11/29 01:02:11;;;;;;;5.03;3.60;;;11.00;99.90;;;;;;5113788;28;20020;-47
2022/11/29 01:04:36;;;;;;;5.18;3.50;;;11.40;99.90;;;;;;5113883;28;20039;-48
2022/11/29 01:07:02;;;;;;;4.70;3.30;;;12.80;99.90;;;;;;5113723;28;20035;-47
2022/11/29 01:09:27;;;;;;;4.45;3.25;;;14.00;99.90;;;;;;5113057;28;20552;-47
2022/11/29 01:11:53;;;;;;;3.85;3.10;;;14.20;99.50;;;;;;5113595;28;20115;-48
2022/11/29 01:14:19;;;;;;;4.93;3.15;;;13.80;99.60;;;;;;5113774;28;20032;-47
2022/11/29 01:16:44;;;;;;;5.38;3.45;;;13.30;99.90;;;;;;5113533;28;20473;-45
2022/11/29 01:19:10;;;;;;;4.40;2.95;;;12.70;99.90;;;;;;5113000;28;20028;-47
2022/11/29 01:21:35;;;;;;;3.67;3.00;;;12.20;99.90;;;;;;5113461;28;20031;-47
2022/11/29 01:24:02;;;;;;;3.35;2.80;;;11.80;99.90;;;;;;5113295;27;20023;-49
2022/11/29 01:26:29;;;;;;;4.25;3.13;;;11.50;99.90;;;;;;5113157;28;20106;-47
2022/11/29 01:28:56;;;;;;;5.20;3.78;;;11.20;99.90;;;;;;5112828;28;20032;-47
2022/11/29 01:31:25;;;;;;;5.32;3.30;;;11.00;99.90;;;;;;5113244;28;20028;-47
2022/11/29 01:34:03;;;;;;;4.60;3.50;;;10.90;99.90;;;;;;5113168;28;20035;-47
2022/11/29 01:36:29;;;;;;;4.93;3.42;;;10.80;99.90;;;;;;5113121;28;20028;-47
2022/11/29 01:39:01;;;;;;;4.22;2.95;;;10.90;99.90;;;;;;5112324;28;20050;-46
2022/11/29 01:41:30;;;;;;;3.63;2.80;;;12.30;99.90;;;;;;5111785;28;20024;-47
2022/11/29 01:44:10;;;;;;;4.03;3.05;;;14.10;99.90;;;;;;5112926;28;20051;-47
2022/11/29 01:46:39;;;;;;;3.60;2.63;;;14.40;99.40;;;;;;5112286;28;20490;-48
2022/11/29 01:49:15;;;;;;;4.20;3.35;;;14.10;99.30;;;;;;5112230;28;20036;-47
2022/11/29 01:51:47;;;;;;;4.45;3.33;;;13.50;99.80;;;;;;5113080;28;20114;-47
2022/11/29 01:54:13;;;;;;;4.72;2.90;;;12.90;99.90;;;;;;5112808;28;20547;-47
2022/11/29 01:56:40;;;;;;;3.97;3.15;;;12.40;99.90;;;;;;5112706;28;20085;-47
2022/11/29 01:59:10;;;;;;;3.50;3.03;;;11.90;99.90;;;;;;5112111;28;20020;-47
2022/11/29 02:01:36;;;;;;;3.90;2.83;;;11.60;99.90;;;;;;5112502;28;20468;-46
2022/11/29 02:04:01;;;;;;;3.90;3.10;;;11.30;99.90;;;;;;5112778;28;20023;-47
2022/11/29 02:06:28;;;;;;;4.00;2.95;;;11.10;99.90;;;;;;5112534;28;20026;-47
2022/11/29 02:08:54;;;;;;;3.35;2.72;;;10.90;99.90;;;;;;5111971;27;20036;-47
2022/11/29 02:11:38;;;;;;;3.67;2.97;;;10.80;99.90;;;;;;5112525;28;20020;-47
2022/11/29 02:14:36;;;;;;;4.07;2.78;;;11.00;99.90;;;;;;5112290;28;20027;-48
2022/11/29 02:17:31;;;;;;;3.53;2.63;;;12.60;99.90;;;;;;5112324;28;20088;-48
2022/11/29 02:20:30;;;;;;;3.65;2.83;;;14.20;99.90;;;;;;5112297;27;20026;-45
2022/11/29 02:23:28;;;;;;;3.28;2.60;;;14.30;99.20;;;;;;5112133;28;20034;-47
2022/11/29 02:26:12;;;;;;;3.83;2.60;;;13.70;99.60;;;;;;5112191;28;20104;-47
2022/11/29 02:29:03;;;;;;;3.13;2.42;;;13.00;99.90;;;;;;5111658;28;20020;-47
2022/11/29 02:31:50;;;;;;;3.47;2.65;;;12.50;99.90;;;;;;5112174;28;20023;-46
2022/11/29 02:34:22;;;;;;;3.92;3.03;;;11.90;99.90;;;;;;5112130;28;20024;-50
2022/11/29 02:37:08;;;;;;;3.58;2.85;;;11.60;99.90;;;;;;5111278;28;20066;-47
2022/11/29 02:39:37;;;;;;;3.35;2.60;;;11.20;99.90;;;;;;5111636;28;20396;-51
2022/11/29 02:42:05;;;;;;;3.75;3.00;;;11.00;99.90;;;;;;5111883;28;20051;-47
2022/11/29 02:44:34;;;;;;;4.50;2.80;;;10.90;99.90;;;;;;5111786;28;20098;-47
2022/11/29 02:47:12;;;;;;;3.72;2.90;;;10.70;99.90;;;;;;5111650;28;20423;-47
2022/11/29 02:50:02;;;;;;;4.03;2.85;;;10.60;99.90;;;;;;5110285;28;20031;-47
2022/11/29 02:53:02;;;;;;;3.95;2.92;;;10.50;99.90;;;;;;5111813;28;20499;-47
2022/11/29 02:55:38;;;;;;;4.18;2.97;;;10.50;99.90;;;;;;5111506;28;20028;-47
2022/11/29 02:58:27;;;;;;;3.55;2.90;;;;;;;;;;5110318;28;20023;-47
2022/11/29 03:01:22;;;;;;;3.55;2.80;;;10.30;99.90;;;;;;5091740;28;20046;-46
2022/11/29 03:04:02;;;;;;;3.95;2.78;;;10.40;99.90;;;;;;5105540;28;20036;-48
2022/11/29 03:06:28;;;;;;;3.83;2.75;;;11.90;99.90;;;;;;5111828;28;20084;-47
2022/11/29 03:09:13;;;;;;;4.78;2.72;;;14.00;99.90;;;;;;5111056;28;20385;-50
2022/11/29 03:12:12;;;;;;;2.90;2.40;;;14.60;99.40;;;;;;5111601;28;20511;-47
2022/11/29 03:15:00;;;;;;;3.70;2.30;;;14.30;99.10;;;;;;5108639;28;20032;-47
2022/11/29 03:17:31;;;;;;;3.60;2.50;;;13.60;99.70;;;;;;5111295;28;20073;-48
2022/11/29 03:20:15;;;;;;;3.30;2.40;;;12.90;99.90;;;;;;5111107;28;20033;-47
2022/11/29 03:23:06;;;;;;;3.92;2.78;;;12.40;99.90;;;;;;5111593;28;20023;-47
2022/11/29 03:25:41;;;;;;;4.25;2.90;;;11.90;99.90;;;;;;5111324;28;20042;-47
2022/11/29 03:28:36;;;;;;;2.90;2.58;;;11.50;99.90;;;;;;5110786;28;20439;-47
2022/11/29 03:31:15;;;;;;;2.80;2.35;;;11.20;99.90;;;;;;5111271;28;20020;-47
2022/11/29 03:33:55;;;;;;;2.40;2.10;;;11.10;99.90;;;;;;5111319;28;20035;-50
2022/11/29 03:36:47;;;;;;;3.33;2.60;;;12.40;99.90;;;;;;5111173;28;20500;-49
2022/11/29 03:39:44;;;;;;;2.97;2.47;;;13.90;99.90;;;;;;5110520;28;20509;-47
2022/11/29 03:42:25;;;;;;;2.70;2.10;;;14.00;99.70;;;;;;5106804;28;20040;-48
2022/11/29 03:45:12;;;;;;;3.55;2.53;;;13.60;99.90;;;;;;5111311;28;20023;-47
2022/11/29 03:48:02;;;;;;;3.10;2.20;;;12.90;99.90;;;;;;5110964;28;20027;-48
2022/11/29 03:50:52;;;;;;;2.97;2.28;;;12.40;99.90;;;;;;5103452;28;20031;-49
2022/11/29 03:53:40;;;;;;;2.58;2.20;;;11.90;99.90;;;;;;5111222;28;20024;-48
2022/11/29 03:56:24;;;;;;;3.53;2.63;;;11.50;99.90;;;;;;5111331;28;20061;-47
2022/11/29 03:59:23;;;;;;;3.08;2.30;;;11.20;99.90;;;;;;5110721;28;20028;-46
2022/11/29 04:02:06;;;;;;;3.85;2.28;;;11.00;99.90;;;;;;5111106;28;20508;-47
2022/11/29 04:05:20;;;;;;;2.30;2.00;;;11.20;99.90;;;;;;5111003;28;20027;-47
2022/11/29 04:08:11;;;;;;;3.65;2.70;;;13.00;99.90;;;;;;5072879;28;20068;-50
2022/11/29 04:10:56;;;;;;;2.60;2.05;;;14.20;99.90;;;;;;5114851;28;20016;-47
2022/11/29 04:14:04;;;;;;;2.85;2.30;;;14.10;99.50;;;;;;5114859;28;20027;-49
2022/11/29 04:17:00;;;;;;;2.45;2.03;;;13.40;99.90;;;;;;5114738;28;20103;-47
2022/11/29 04:19:54;;;;;;;2.95;2.10;;;12.80;99.90;;;;;;5114187;28;20518;-47
2022/11/29 04:22:42;;;;;;;2.63;1.85;;;12.10;99.90;;;;;;5114651;28;20028;-47
2022/11/29 04:25:27;;;;;;;2.58;2.10;;;11.70;99.90;;;;;;5114461;28;20114;-48
2022/11/29 04:28:34;;;;;;;3.70;2.30;;;11.40;99.90;;;;;;5112677;28;20020;-53
2022/11/29 04:31:18;;;;;;;2.60;1.90;;;11.10;99.90;;;;;;5071471;28;20097;-46
2022/11/29 04:34:05;;;;;;;2.40;2.03;;;11.00;99.90;;;;;;5112631;28;20503;-47
2022/11/29 04:36:39;;;;;;;2.20;1.98;;;12.40;99.90;;;;;;5113800;27;20039;-47
2022/11/29 04:39:46;;;;;;;2.40;2.05;;;13.90;99.90;;;;;;5113686;27;20055;-50
2022/11/29 04:42:21;;;;;;;3.30;2.20;;;14.10;99.60;;;;;;5090439;28;20039;-45
2022/11/29 04:45:01;;;;;;;2.47;1.77;;;13.70;99.70;;;;;;5114702;28;20476;-47
2022/11/29 04:47:54;;;;;;;1.98;1.63;;;13.10;99.90;;;;;;5113968;28;20024;-47
2022/11/29 04:50:37;;;;;;;2.42;1.90;;;12.50;99.90;;;;;;5112604;28;20508;-49
2022/11/29 04:53:29;;;;;;;2.95;2.00;;;12.00;99.90;;;;;;5114048;28;20080;-47
2022/11/29 04:56:22;;;;;;;2.67;2.08;;;11.60;99.90;;;;;;5113973;28;20043;-47
2022/11/29 04:59:17;;;;;;;2.72;1.95;;;11.30;99.90;;;;;;5113478;28;20028;-47
2022/11/29 05:01:45;;;;;;;;;;;11.10;99.90;;;;;;5112933;28;20564;-48
2022/11/29 05:04:22;;;;;;;4.05;2.05;;;11.20;99.90;;;;;;5113825;28;19933;-46
2022/11/29 05:06:57;;;;;;;2.38;2.05;;;12.60;99.90;;;;;;5113832;28;20534;-47
2022/11/29 05:09:39;;;;;;;2.53;1.90;;;14.00;99.90;;;;;;5113263;28;20114;-49
2022/11/29 05:12:29;;;;;;;2.80;1.85;;;14.10;99.70;;;;;;5113596;28;20028;-48
2022/11/29 05:15:08;;;;;;;2.33;1.80;;;13.70;99.80;;;;;;5113673;28;20032;-51
2022/11/29 05:17:54;;;;;;;2.08;1.75;;;13.10;99.90;;;;;;5113468;28;20058;-47
2022/11/29 05:20:41;;;;;;;2.53;2.03;;;12.50;99.90;;;;;;5112205;28;20028;-48
2022/11/29 05:23:06;;;;;;;2.42;1.92;;;12.00;99.90;;;;;;5113414;28;20023;-47
2022/11/29 05:25:56;;;;;;;2.55;1.95;;;11.60;99.90;;;;;;5113271;28;20069;-47
2022/11/29 05:28:50;;;;;;;3.95;2.17;;;11.30;99.90;;;;;;5112821;28;20039;-47
2022/11/29 05:31:31;;;;;;;2.60;1.88;;;11.10;99.90;;;;;;5113550;28;20024;-47
2022/11/29 05:34:13;;;;;;;2.47;2.00;;;11.00;99.90;;;;;;5113615;28;20395;-47
2022/11/29 05:36:45;;;;;;;2.15;1.80;;;12.40;99.90;;;;;;5112315;28;20028;-47
2022/11/29 05:39:35;;;;;;;2.13;1.90;;;13.90;99.90;;;;;;5112423;28;20038;-47
2022/11/29 05:42:13;;;;;;;2.45;1.90;;;14.10;99.60;;;;;;5113264;28;20038;-48
2022/11/29 05:45:17;;;;;;;1.83;1.70;;;13.80;99.70;;;;;;5113079;28;20026;-46
2022/11/29 05:48:11;;;;;;;2.17;1.80;;;13.10;99.90;;;;;;5112871;28;20030;-47
2022/11/29 05:50:46;;;;;;;3.10;1.83;;;12.50;99.90;;;;;;5113095;27;20202;-47
2022/11/29 05:53:53;;;;;;;1.70;1.60;;;12.00;99.90;;;;;;5113044;28;20243;-50
2022/11/29 05:56:49;;;;;;;2.38;1.80;;;11.60;99.90;;;;;;5103555;28;20115;-45
2022/11/29 05:59:20;;;;;;;2.17;1.77;;;11.30;99.90;;;;;;5112301;28;20027;-47
2022/11/29 06:02:10;;;;;;;2.10;1.80;;;11.10;99.90;;;;;;5112754;28;20077;-45
2022/11/29 06:04:44;;;;;;;2.60;1.60;;;11.40;99.90;;;;;;5112625;28;20491;-47
2022/11/29 06:07:14;;;;;;;2.08;1.88;;;13.00;99.90;;;;;;5112513;28;20031;-47
2022/11/29 06:10:10;;;;;;;3.35;2.00;;;14.00;99.90;;;;;;5112061;28;20028;-47
2022/11/29 06:12:36;;;;;;;2.75;1.70;;;14.00;99.60;;;;;;5106961;28;20039;-47
2022/11/29 06:15:42;;;;;;;2.70;1.80;;;13.60;99.90;;;;;;5112477;28;20026;-45
2022/11/29 06:18:10;;;;;;;;;;;12.90;99.90;;;;;;5112301;28;20019;-47
2022/11/29 06:21:05;;;;;;;3.55;1.95;;;12.40;99.90;;;;;;5112783;28;20353;-47
2022/11/29 06:23:57;;;;;;;2.45;1.92;;;12.00;99.90;;;;;;5106303;28;20043;-45
2022/11/29 06:26:29;;;;;;;2.50;1.90;;;11.50;99.90;;;;;;5112183;28;20028;-47
2022/11/29 06:29:17;;;;;;;3.05;1.75;;;11.30;99.90;;;;;;5111684;28;20024;-47
2022/11/29 06:31:47;;;;;;;2.58;1.83;;;11.00;99.90;;;;;;5112070;28;20055;-47
2022/11/29 06:34:35;;;;;;;2.40;1.70;;;11.20;99.90;;;;;;5112263;28;20450;-47
2022/11/29 06:37:28;;;;;;;2.95;1.80;;;12.80;99.90;;;;;;5112047;28;20019;-46
2022/11/29 06:39:54;;;;;;;2.95;1.90;;;14.00;99.90;;;;;;5106882;28;20412;-47
2022/11/29 06:42:19;;;;;;;2.05;1.67;;;14.00;99.50;;;;;;5112006;28;20031;-47
2022/11/29 06:44:46;;;;;;;2.97;1.92;;;13.70;99.80;;;;;;5111820;28;20087;-47
2022/11/29 06:47:20;;;;;;;2.50;1.67;;;13.10;99.90;;;;;;5111759;28;20106;-47
2022/11/29 06:50:13;;;;;;;2.13;1.73;;;12.60;99.90;;;;;;5111395;28;20020;-47
2022/11/29 06:52:44;;;;;;;1.98;1.55;;;12.10;99.90;;;;;;5104068;28;20031;-50
2022/11/29 06:55:23;;;;;;;2.97;1.80;;;11.70;99.90;;;;;;5111786;28;20030;-49
2022/11/29 06:58:06;;;;;;;2.85;2.00;;;11.40;99.90;;;;;;5111500;27;20384;-47
2022/11/29 07:01:01;;;;;;;2.50;1.92;;;11.10;99.90;;;;;;5111640;28;20519;-47
2022/11/29 07:03:39;;;;;;;2.05;1.70;;;10.90;99.90;;;;;;5106690;28;20032;-47
2022/11/29 07:06:23;;;;;;;2.25;1.80;;;10.80;99.90;;;;;;5111611;28;20031;-48
2022/11/29 07:09:12;;;;;;;3.10;2.10;;;10.70;99.90;;;;;;5110880;28;20358;-47
2022/11/29 07:11:38;;;;;;;2.45;1.90;;;10.50;99.90;;;;;;5111114;28;20378;-47
2022/11/29 07:14:04;;;;;;;1.88;1.60;;;10.50;99.90;;;;;;5111528;28;20065;-47
2022/11/29 07:16:38;;;;;;;3.08;2.10;;;10.50;99.90;;;;;;5111404;28;20051;-47
2022/11/29 07:19:30;;;;;;;2.67;2.00;;;10.40;99.90;;;;;;5110795;28;20024;-49
2022/11/29 07:22:08;;;;;;;2.28;1.77;;;10.40;99.90;;;;;;5111376;28;20031;-47
2022/11/29 07:24:57;;;;;;;1.95;1.75;;;10.40;99.90;;;;;;5111384;28;20024;-48
2022/11/29 07:27:46;;;;;;;2.97;1.85;;;10.30;99.90;;;;;;5111228;28;20484;-47
2022/11/29 07:30:33;;;;;;;2.33;1.80;;;10.30;99.90;;;;;;5111030;28;20392;-47
2022/11/29 07:33:05;;;;;;;2.50;1.58;;;10.30;99.90;;;;;;5111347;28;20077;-47
2022/11/29 07:36:03;;;;;;;2.65;1.73;;;10.20;99.90;;;;;;5110518;28;20098;-50
2022/11/29 07:39:06;;;;;;;2.67;1.77;;;10.20;99.90;;;;;;5109707;28;20031;-47
2022/11/29 07:42:14;;;;;;;2.67;1.98;;;10.20;99.90;;;;;;5110056;28;20074;-47
2022/11/29 07:45:03;;;;;;;2.67;1.70;;;10.20;99.90;;;;;;5114477;28;20016;-47
2022/11/29 07:47:29;;;;;;;2.25;2.03;;;10.20;99.90;;;;;;5115611;28;20456;-47
2022/11/29 07:49:55;;;;;;;2.40;1.67;;;10.20;99.90;;;;;;5114865;28;20022;-50
2022/11/29 07:52:20;;;;;;;2.92;1.90;;;10.20;99.90;;;;;;5115479;28;20031;-47
2022/11/29 07:54:46;;;;;;;2.33;1.70;;;10.20;99.90;;;;;;5115286;28;20107;-47
2022/11/29 07:57:12;;;;;;;2.67;1.75;;;10.20;99.90;;;;;;5115588;28;20028;-47
2022/11/29 07:59:37;;;;;;;2.35;1.92;;;10.20;99.90;;;;;;5114359;28;20023;-47
2022/11/29 08:02:03;;;;;;;3.13;2.10;;;10.20;99.90;;;;;;5115051;27;20043;-45
2022/11/29 08:04:29;;;;;;;2.33;1.60;;;10.20;99.90;;;;;;5114888;28;20076;-49
2022/11/29 08:06:58;;;;;;;2.20;1.60;;;10.10;99.90;;;;;;5114806;28;20019;-47
2022/11/29 08:09:24;;;;;;;2.85;2.05;;;10.10;99.90;;;;;;5114362;28;20388;-48
2022/11/29 08:11:49;;;;;;;2.30;1.70;;;10.10;99.90;;;;;;5114841;28;20034;-47
2022/11/29 08:14:15;;;;;;;2.80;1.88;;;10.10;99.90;;;;;;5114667;28;20030;-47
2022/11/29 08:16:41;;;;;;;2.47;1.60;;;10.10;99.90;;;;;;5115106;28;20473;-46
2022/11/29 08:19:06;;;;;;;3.38;1.90;;;10.10;99.90;;;;;;5114176;28;20027;-47
2022/11/29 08:21:32;;;;;;;2.30;1.85;;;10.10;99.90;;;;;;5114618;28;20023;-49
2022/11/29 08:23:57;;;;;;;2.92;2.00;;;10.10;99.90;;;;;;5114507;28;20024;-45
2022/11/29 08:26:23;;;;;;;2.33;1.73;;;10.10;99.90;;;;;;5114549;28;20384;-46
2022/11/29 08:28:51;;;;;;;2.75;1.80;;;10.10;99.90;;;;;;5114312;28;20028;-46
2022/11/29 08:31:17;;;;;;;2.88;1.90;;;10.10;99.90;;;;;;5114483;28;20099;-47
2022/11/29 08:33:43;;;;;;;2.42;1.85;;;10.10;99.90;;;;;;5114343;28;20127;-47
2022/11/29 08:36:12;;;;;;;2.90;1.92;;;10.10;99.90;;;;;;5113620;28;20102;-48
2022/11/29 08:38:38;;;;;;;2.63;1.50;;;10.10;99.90;;;;;;5113666;28;20024;-47
2022/11/29 08:41:07;;;;;;;2.38;1.65;;;10.10;99.90;;;;;;5114115;27;20039;-45
2022/11/29 08:43:32;;;;;;;3.03;1.77;;;10.10;99.90;;;;;;5114172;28;20165;-47
2022/11/29 08:45:58;;;;;;;2.17;1.73;;;10.10;99.90;;;;;;5114146;28;20094;-47
2022/11/29 08:48:24;;;;;;;2.60;1.67;;;10.10;99.90;;;;;;5113656;28;20019;-47
2022/11/29 08:50:51;;;;;;;2.35;1.73;;;10.10;99.90;;;;;;5114089;28;20031;-47
2022/11/29 08:56:02;;;;;;;2.50;1.75;;;10.10;99.90;;;;;;5112631;28;20453;-47
2022/11/29 08:58:28;;;;;;;2.35;1.85;;;10.20;99.90;;;;;;5113383;28;20107;-51
2022/11/29 09:00:54;;;;;;;2.50;1.90;;;10.10;99.90;;;;;;5113944;28;20473;-51
2022/11/29 09:06:11;;;;;;;2.45;1.80;;;10.10;99.90;;;;;;5113764;28;20027;-48
2022/11/29 09:08:37;;;;;;;2.60;2.05;;;10.10;99.90;;;;;;5113677;28;20024;-47
2022/11/29 09:11:14;;;;;;;2.20;1.90;;;10.10;99.90;;;;;;5113733;28;20434;-48
2022/11/29 09:13:42;;;;;;;2.42;2.00;;;10.10;99.90;;;;;;5114132;28;20091;-47
2022/11/29 09:16:10;;;;;;;2.40;1.92;;;10.10;99.90;;;;;;5113457;28;20031;-48
2022/11/29 09:18:37;;;;;;;4.13;1.90;;;10.10;99.90;;;;;;5113034;28;20031;-47
2022/11/29 09:21:07;;;;;;;2.10;1.77;;;10.10;99.90;;;;;;5113521;28;20487;-48
2022/11/29 09:23:34;;;;;;;2.88;1.77;;;10.10;99.90;;;;;;5113502;28;20032;-47
2022/11/29 09:25:59;;;;;;;2.58;1.88;;;10.10;99.90;;;;;;5113445;28;20022;-47
2022/11/29 09:28:26;;;;;;;2.28;1.92;;;10.10;99.90;;;;;;5112863;28;20134;-47
2022/11/29 09:30:51;;;;;;;3.28;2.10;;;10.10;99.90;;;;;;5113230;28;20020;-47
2022/11/29 09:33:17;;;;;;;3.00;1.83;;;10.10;99.90;;;;;;5113342;28;20439;-50
2022/11/29 09:35:43;;;;;;;2.72;2.00;;;10.10;99.90;;;;;;5112626;28;20051;-47
2022/11/29 09:38:12;;;;;;;2.60;1.90;;;10.10;99.90;;;;;;5112724;28;20442;-47
2022/11/29 09:40:53;;;;;;;2.80;1.75;;;10.10;99.90;;;;;;5113171;28;20035;-47
2022/11/29 09:43:40;;;;;;;2.45;2.00;;;10.10;99.90;;;;;;5113244;28;20020;-47
2022/11/29 09:46:28;;;;;;;2.00;1.80;;;10.10;99.90;;;;;;5113024;28;20023;-47
2022/11/29 09:49:16;;;;;;;3.40;2.00;;;10.10;99.90;;;;;;5112453;28;20055;-47
2022/11/29 09:52:08;;;;;;;2.33;2.00;;;10.10;99.90;;;;;;5113001;28;20027;-47
2022/11/29 09:54:44;;;;;;;2.47;2.10;;;10.10;99.90;;;;;;5112941;28;20027;-47
2022/11/29 09:57:10;;;;;;;2.25;1.80;;;10.10;99.90;;;;;;5112924;28;20397;-47
2022/11/29 09:59:49;;;;;;;2.15;1.70;;;10.10;99.90;;;;;;5112166;28;20027;-47
2022/11/29 10:02:38;;;;;;;2.85;1.90;;;10.10;99.90;;;;;;5113013;28;20209;-47
2022/11/29 10:05:27;;;;;;;2.60;1.83;;;10.10;99.90;;;;;;5112784;28;20043;-45
2022/11/29 10:08:05;;;;;;;2.38;1.83;;;10.10;99.90;;;;;;5112045;28;20027;-47
2022/11/29 10:10:46;;;;;;;3.83;1.95;;;10.10;99.90;;;;;;5112732;28;20035;-45
2022/11/29 10:13:43;;;;;;;2.28;1.92;;;10.10;99.90;;;;;;5111211;28;20020;-46
2022/11/29 10:16:24;;;;;;;2.03;1.67;;;10.10;99.90;;;;;;5112351;28;20024;-48
2022/11/29 10:19:45;;;;;;;3.22;2.28;;;10.10;99.90;;;;;;5111898;28;20073;-47
2022/11/29 10:22:39;;;;;;;2.10;1.70;;;10.10;99.90;;;;;;5069301;28;20060;-50
2022/11/29 10:25:09;;;;;;;2.67;1.97;;;10.10;99.90;;;;;;5111915;28;20119;-48
2022/11/29 10:27:38;;;;;;;2.20;1.65;;;10.10;99.90;;;;;;5112086;28;20761;-47
2022/11/29 10:30:06;;;;;;;2.38;1.85;;;10.10;99.90;;;;;;5111716;28;20080;-47
2022/11/29 10:32:32;;;;;;;2.75;1.90;;;10.10;99.90;;;;;;5112108;28;20031;-48
2022/11/29 10:34:59;;;;;;;2.78;1.67;;;10.10;99.90;;;;;;5111373;28;20366;-48
2022/11/29 10:37:25;;;;;;;2.78;1.98;;;10.10;99.90;;;;;;5111882;28;20545;-48
2022/11/29 10:40:05;;;;;;;2.10;1.80;;;10.10;99.90;;;;;;5111450;28;20043;-47
2022/11/29 10:42:52;;;;;;;2.13;1.60;;;10.20;99.90;;;;;;5112015;28;20092;-47
2022/11/29 10:45:29;;;;;;;2.22;1.60;;;10.20;99.90;;;;;;5111910;28;20024;-49
2022/11/29 10:48:32;;;;;;;2.25;1.70;;;10.10;99.90;;;;;;5111528;28;20124;-49
2022/11/29 10:50:58;;;;;;;1.92;1.65;;;10.10;99.90;;;;;;5089429;28;20031;-49
2022/11/29 10:53:35;;;;;;;2.67;1.50;;;10.10;99.90;;;;;;5111599;28;20031;-45
2022/11/29 10:56:12;;;;;;;2.55;1.50;;;10.20;99.90;;;;;;5111701;28;20024;-47
2022/11/29 10:58:53;;;;;;;2.30;1.60;;;10.10;99.90;;;;;;5111588;28;20112;-48
2022/11/29 11:01:19;;;;;;;2.70;1.60;;;10.10;99.90;;;;;;5111750;28;20396;-47
2022/11/29 11:03:53;;;;;;;2.45;1.77;;;10.10;99.90;;;;;;5111398;28;20019;-47
2022/11/29 11:06:42;;;;;;;;;;;10.10;99.90;;;;;;5112014;28;20063;-51
2022/11/29 11:09:48;;;;;;;2.08;1.73;;;10.10;99.90;;;;;;5103358;28;20260;-47
2022/11/29 11:12:13;;;;;;;2.95;1.90;;;10.20;99.90;;;;;;5090315;28;20065;-47
2022/11/29 11:14:39;;;;;;;2.50;1.70;;;10.20;99.90;;;;;;5111864;28;20153;-49
2022/11/29 11:17:29;;;;;;;2.15;1.60;;;10.10;99.90;;;;;;5111306;28;20043;-47
2022/11/29 11:20:24;;;;;;;2.60;2.05;;;10.20;99.90;;;;;;5110873;28;20034;-47
2022/11/29 11:23:02;;;;;;;2.30;1.80;;;10.20;99.90;;;;;;5109203;28;20164;-47
2022/11/29 11:25:29;;;;;;;2.70;1.83;;;10.20;99.90;;;;;;5111416;28;20028;-47
2022/11/29 11:27:56;;;;;;;2.05;1.60;;;10.10;99.90;;;;;;5111084;28;20023;-47
2022/11/29 11:30:26;;;;;;;2.10;1.73;;;10.10;99.90;;;;;;5111339;28;20024;-49
2022/11/29 11:33:19;;;;;;;3.05;1.83;;;10.10;99.90;;;;;;5111326;28;20016;-47
2022/11/29 11:36:00;;;;;;;2.22;1.60;;;10.10;99.90;;;;;;5110651;28;20094;-47
2022/11/29 11:38:26;;;;;;;1.80;1.58;;;10.10;99.90;;;;;;5110808;28;20380;-50
2022/11/29 11:44:28;;;;;;;2.15;1.45;;;10.10;99.90;;;;;;5093101;28;20432;-48
2022/11/29 11:46:54;;;;;;;2.25;1.60;;;10.10;99.90;;;;;;5111122;28;20047;-47
2022/11/29 11:49:35;;;;;;;2.25;1.33;;;10.20;99.90;;;;;;5109215;28;20023;-47
2022/11/29 11:52:03;;;;;;;1.60;1.40;;;10.10;99.90;;;;;;5111224;28;20044;-50
2022/11/29 11:54:30;;;;;;;2.35;1.70;;;10.20;99.90;;;;;;5111147;28;20032;-47
2022/11/29 11:56:56;;;;;;;1.98;1.50;;;10.10;99.90;;;;;;5110993;28;20020;-47
2022/11/29 11:59:25;;;;;;;2.47;1.58;;;10.10;99.90;;;;;;5110651;28;20484;-47
2022/11/29 12:01:51;;;;;;;1.95;1.40;;;10.20;99.90;;;;;;5110932;28;20028;-46
2022/11/29 12:04:29;;;;;;;2.50;1.63;;;10.10;99.90;;;;;;5110963;28;20036;-47
2022/11/29 12:07:04;;;;;;;2.08;1.63;;;10.10;99.90;;;;;;5110858;28;20028;-47
2022/11/29 12:09:39;;;;;;;2.33;1.73;;;10.10;99.90;;;;;;5110586;28;20121;-50
2022/11/29 12:12:14;;;;;;;2.00;1.63;;;10.10;99.90;;;;;;5110887;28;20081;-47
2022/11/29 12:14:54;;;;;;;2.35;1.60;;;10.20;99.90;;;;;;5110940;28;20068;-48
2022/11/29 12:17:47;;;;;;;2.22;1.50;;;10.10;99.90;;;;;;5110825;28;20485;-50
2022/11/29 12:20:24;;;;;;;2.00;1.52;;;10.10;99.90;;;;;;5091311;28;20039;-47
2022/11/29 12:22:50;;;;;;;1.77;1.40;;;10.20;99.90;;;;;;5110816;28;20507;-47
2022/11/29 12:25:25;;;;;;;1.65;1.30;;;10.20;99.90;;;;;;5109547;28;20023;-47
2022/11/29 12:27:51;;;;;;;2.22;1.50;;;10.20;99.90;;;;;;5110769;28;20111;-47
2022/11/29 12:30:17;;;;;;;1.95;1.40;;;10.10;99.90;;;;;;5112822;28;20090;-47
2022/11/29 12:32:54;;;;;;;1.63;1.38;;;10.20;99.90;;;;;;5114517;28;20060;-48
2022/11/29 12:35:46;;;;;;;1.80;1.50;;;10.10;99.90;;;;;;5113600;27;20100;-47
2022/11/29 12:38:27;;;;;;;1.77;1.45;;;10.20;99.90;;;;;;5113917;28;20022;-47
2022/11/29 12:41:15;;;;;;;1.77;1.42;;;10.20;99.90;;;;;;5114203;28;20036;-47
2022/11/29 12:43:47;;;;;;;1.65;1.42;;;10.20;99.90;;;;;;5114352;28;20278;-45
2022/11/29 12:46:24;;;;;;;1.50;1.30;;;10.20;99.90;;;;;;5114244;28;20026;-47
2022/11/29 12:49:14;;;;;;;1.90;1.50;;;10.10;99.90;;;;;;5113708;28;20023;-47
2022/11/29 12:51:53;;;;;;;1.80;1.42;;;10.10;99.90;;;;;;5114382;28;20384;-47
2022/11/29 12:54:37;;;;;;;2.17;1.30;;;10.20;99.90;;;;;;5114092;28;20026;-50
2022/11/29 12:57:24;;;;;;;2.55;1.67;;;10.20;99.90;;;;;;5114005;28;20070;-47
2022/11/29 13:00:03;;;;;;;1.48;1.25;;;10.10;99.90;;;;;;5113715;28;20070;-48
2022/11/29 13:02:48;;;;;;;1.70;1.38;;;10.20;99.90;;;;;;5112822;28;20055;-47
2022/11/29 13:05:13;;;;;;;2.05;1.60;;;10.10;99.90;;;;;;5113968;28;20030;-48
2022/11/29 13:08:17;;;;;;;2.20;1.90;;;10.20;99.90;;;;;;5113626;28;20091;-46
2022/11/29 13:11:20;;;;;;;1.70;1.55;;;10.20;99.90;;;;;;5091839;28;20085;-47
2022/11/29 13:14:00;;;;;;;2.13;1.55;;;10.10;99.90;;;;;;5113775;28;20030;-47
2022/11/29 13:16:51;;;;;;;1.80;1.20;;;10.20;99.90;;;;;;5113639;28;20024;-46
2022/11/29 13:19:41;;;;;;;2.42;1.77;;;10.20;99.90;;;;;;5113248;28;20028;-47
2022/11/29 13:22:37;;;;;;;1.52;1.40;;;10.20;99.90;;;;;;5107304;28;20044;-47
2022/11/29 13:25:15;;;;;;;2.30;1.42;;;10.20;99.90;;;;;;5113484;28;20031;-49
2022/11/29 13:28:04;;;;;;;1.70;1.45;;;10.20;99.90;;;;;;5113380;28;20051;-47
2022/11/29 13:30:32;;;;;;;1.50;1.20;;;10.20;99.90;;;;;;5113324;28;20020;-47
2022/11/29 13:33:06;;;;;;;2.05;1.30;;;10.20;99.90;;;;;;5113081;28;20027;-47
2022/11/29 13:36:13;;;;;;;1.92;1.38;;;10.20;99.90;;;;;;5113255;28;20051;-47
2022/11/29 13:38:52;;;;;;;1.92;1.58;;;10.20;99.90;;;;;;5098050;28;20039;-47
2022/11/29 13:41:49;;;;;;;2.25;1.65;;;10.20;99.90;;;;;;5112337;27;20041;-47
2022/11/29 13:44:44;;;;;;;1.70;1.50;;;10.10;99.90;;;;;;5112935;28;20028;-45
2022/11/29 13:47:12;;;;;;;2.03;1.50;;;10.20;99.90;;;;;;5113033;28;20366;-48
2022/11/29 13:49:50;;;;;;;1.90;1.50;;;10.20;99.90;;;;;;5111004;28;20028;-47
2022/11/29 13:52:38;;;;;;;1.65;1.40;;;10.20;99.90;;;;;;5112990;28;20473;-47